sensor_id;sensor_type;location;lat;lon;timestamp;temperature;humidity
53208;DHT22;39093;52.788;6.940;2024-01-30T00:01:09;4.90;99.90
53208;DHT22;39093;52.788;6.940;2024-01-30T00:03:36;5.00;99.90
53208;DHT22;39093;52.788;6.940;2024-01-30T00:06:06;5.00;99.90
53208;DHT22;39093;52.788;6.940;2024-01-30T00:08:33;5.00;99.90
53208;DHT22;39093;52.788;6.940;2024-01-30T00:11:00;5.00;99.90
53208;DHT22;39093;52.788;6.940;2024-01-30T00:13:27;5.00;99.90
53208;DHT22;39093;52.788;6.940;2024-01-30T00:15:54;5.00;99.90
53208;DHT22;39093;52.788;6.940;2024-01-30T00:18:21;5.10;99.90
53208;DHT22;39093;52.788;6.940;2024-01-30T00:20:48;5.10;99.90
53208;DHT22;39093;52.788;6.940;2024-01-30T00:23:17;5.10;99.90
53208;DHT22;39093;52.788;6.940;2024-01-30T00:25:44;5.10;99.90
53208;DHT22;39093;52.788;6.940;2024-01-30T00:28:11;5.10;99.90
53208;DHT22;39093;52.788;6.940;2024-01-30T00:30:38;5.10;99.90
53208;DHT22;39093;52.788;6.940;2024-01-30T00:33:05;5.20;99.90
53208;DHT22;39093;52.788;6.940;2024-01-30T00:35:32;5.10;99.90
53208;DHT22;39093;52.788;6.940;2024-01-30T00:37:59;5.10;99.90
53208;DHT22;39093;52.788;6.940;2024-01-30T00:40:26;5.10;99.90
53208;DHT22;39093;52.788;6.940;2024-01-30T00:42:53;5.10;99.90
53208;DHT22;39093;52.788;6.940;2024-01-30T00:45:20;5.10;99.90
53208;DHT22;39093;52.788;6.940;2024-01-30T00:47:48;5.10;99.90
53208;DHT22;39093;52.788;6.940;2024-01-30T00:50:15;5.00;99.90
53208;DHT22;39093;52.788;6.940;2024-01-30T00:52:42;5.00;99.90
53208;DHT22;39093;52.788;6.940;2024-01-30T00:55:11;5.00;99.90
53208;DHT22;39093;52.788;6.940;2024-01-30T00:57:40;5.00;99.90
53208;DHT22;39093;52.788;6.940;2024-01-30T01:00:11;5.00;99.90
53208;DHT22;39093;52.788;6.940;2024-01-30T01:02:39;5.00;99.90
53208;DHT22;39093;52.788;6.940;2024-01-30T01:05:06;5.00;99.90
53208;DHT22;39093;52.788;6.940;2024-01-30T01:07:33;5.00;99.90
53208;DHT22;39093;52.788;6.940;2024-01-30T01:10:00;5.00;99.90
53208;DHT22;39093;52.788;6.940;2024-01-30T01:12:28;4.90;99.90
53208;DHT22;39093;52.788;6.940;2024-01-30T01:14:55;4.90;99.90
53208;DHT22;39093;52.788;6.940;2024-01-30T01:17:22;4.90;99.90
53208;DHT22;39093;52.788;6.940;2024-01-30T01:19:49;4.90;99.90
53208;DHT22;39093;52.788;6.940;2024-01-30T01:22:16;4.90;99.90
53208;DHT22;39093;52.788;6.940;2024-01-30T01:24:44;4.80;99.90
53208;DHT22;39093;52.788;6.940;2024-01-30T01:27:11;4.80;99.90
53208;DHT22;39093;52.788;6.940;2024-01-30T01:29:38;5.00;99.90
53208;DHT22;39093;52.788;6.940;2024-01-30T01:32:05;4.80;99.90
53208;DHT22;39093;52.788;6.940;2024-01-30T01:34:32;4.80;99.90
53208;DHT22;39093;52.788;6.940;2024-01-30T01:36:59;4.70;99.90
53208;DHT22;39093;52.788;6.940;2024-01-30T01:39:26;4.70;99.90
53208;DHT22;39093;52.788;6.940;2024-01-30T01:41:53;4.80;99.90
53208;DHT22;39093;52.788;6.940;2024-01-30T01:44:20;4.70;99.90
53208;DHT22;39093;52.788;6.940;2024-01-30T01:46:47;4.70;99.90
53208;DHT22;39093;52.788;6.940;2024-01-30T01:49:15;4.70;99.90
53208;DHT22;39093;52.788;6.940;2024-01-30T01:51:43;4.70;99.90
53208;DHT22;39093;52.788;6.940;2024-01-30T01:54:12;4.70;99.90
53208;DHT22;39093;52.788;6.940;2024-01-30T01:56:39;4.70;99.90
53208;DHT22;39093;52.788;6.940;2024-01-30T01:59:08;4.70;99.90
53208;DHT22;39093;52.788;6.940;2024-01-30T02:01:38;4.70;99.90
53208;DHT22;39093;52.788;6.940;2024-01-30T02:04:07;4.70;99.90
53208;DHT22;39093;52.788;6.940;2024-01-30T02:06:35;4.70;99.90
53208;DHT22;39093;52.788;6.940;2024-01-30T02:09:02;4.70;99.90
53208;DHT22;39093;52.788;6.940;2024-01-30T02:11:31;4.70;99.90
53208;DHT22;39093;52.788;6.940;2024-01-30T02:14:05;4.60;99.90
53208;DHT22;39093;52.788;6.940;2024-01-30T02:16:32;4.60;99.90
53208;DHT22;39093;52.788;6.940;2024-01-30T02:18:59;4.60;99.90
53208;DHT22;39093;52.788;6.940;2024-01-30T02:21:26;4.60;99.90
53208;DHT22;39093;52.788;6.940;2024-01-30T02:23:54;4.60;99.90
53208;DHT22;39093;52.788;6.940;2024-01-30T02:26:22;4.60;99.90
53208;DHT22;39093;52.788;6.940;2024-01-30T02:28:49;4.60;99.90
53208;DHT22;39093;52.788;6.940;2024-01-30T02:31:16;4.50;99.90
53208;DHT22;39093;52.788;6.940;2024-01-30T02:33:43;4.50;99.90
53208;DHT22;39093;52.788;6.940;2024-01-30T02:36:09;4.50;99.90
53208;DHT22;39093;52.788;6.940;2024-01-30T02:38:37;4.50;99.90
53208;DHT22;39093;52.788;6.940;2024-01-30T02:41:03;4.50;99.90
53208;DHT22;39093;52.788;6.940;2024-01-30T02:43:30;4.50;99.90
53208;DHT22;39093;52.788;6.940;2024-01-30T02:45:57;4.50;99.90
53208;DHT22;39093;52.788;6.940;2024-01-30T02:48:26;4.50;99.90
53208;DHT22;39093;52.788;6.940;2024-01-30T02:50:53;4.60;99.90
53208;DHT22;39093;52.788;6.940;2024-01-30T02:53:20;4.50;99.90
53208;DHT22;39093;52.788;6.940;2024-01-30T02:55:47;4.60;99.90
53208;DHT22;39093;52.788;6.940;2024-01-30T02:58:14;4.60;99.90
53208;DHT22;39093;52.788;6.940;2024-01-30T03:00:41;4.60;99.90
53208;DHT22;39093;52.788;6.940;2024-01-30T03:03:08;4.50;99.90
53208;DHT22;39093;52.788;6.940;2024-01-30T03:05:35;4.60;99.90
53208;DHT22;39093;52.788;6.940;2024-01-30T03:08:04;4.60;99.90
53208;DHT22;39093;52.788;6.940;2024-01-30T03:10:31;4.60;99.90
53208;DHT22;39093;52.788;6.940;2024-01-30T03:12:58;4.60;99.90
53208;DHT22;39093;52.788;6.940;2024-01-30T03:15:25;4.60;99.90
53208;DHT22;39093;52.788;6.940;2024-01-30T03:17:53;4.60;99.90
53208;DHT22;39093;52.788;6.940;2024-01-30T03:20:21;4.60;99.90
53208;DHT22;39093;52.788;6.940;2024-01-30T03:22:48;4.60;99.90
53208;DHT22;39093;52.788;6.940;2024-01-30T03:25:15;4.60;99.90
53208;DHT22;39093;52.788;6.940;2024-01-30T03:27:42;4.70;99.90
53208;DHT22;39093;52.788;6.940;2024-01-30T03:30:09;4.70;99.90
53208;DHT22;39093;52.788;6.940;2024-01-30T03:32:36;4.70;99.90
53208;DHT22;39093;52.788;6.940;2024-01-30T03:35:03;4.80;99.90
53208;DHT22;39093;52.788;6.940;2024-01-30T03:37:30;4.80;99.90
53208;DHT22;39093;52.788;6.940;2024-01-30T03:39:57;4.80;99.90
53208;DHT22;39093;52.788;6.940;2024-01-30T03:42:24;4.80;99.90
53208;DHT22;39093;52.788;6.940;2024-01-30T03:44:52;4.90;99.90
53208;DHT22;39093;52.788;6.940;2024-01-30T03:47:20;4.90;99.90
53208;DHT22;39093;52.788;6.940;2024-01-30T03:49:47;5.00;99.90
53208;DHT22;39093;52.788;6.940;2024-01-30T03:52:14;5.10;99.90
53208;DHT22;39093;52.788;6.940;2024-01-30T03:54:41;5.10;99.90
53208;DHT22;39093;52.788;6.940;2024-01-30T03:57:08;5.20;99.90
53208;DHT22;39093;52.788;6.940;2024-01-30T03:59:35;5.20;99.90
53208;DHT22;39093;52.788;6.940;2024-01-30T04:02:02;5.30;99.90
53208;DHT22;39093;52.788;6.940;2024-01-30T04:04:29;5.30;99.90
53208;DHT22;39093;52.788;6.940;2024-01-30T04:06:56;5.60;99.90
53208;DHT22;39093;52.788;6.940;2024-01-30T04:09:23;5.40;99.90
53208;DHT22;39093;52.788;6.940;2024-01-30T04:11:53;5.50;99.90
53208;DHT22;39093;52.788;6.940;2024-01-30T04:14:20;5.50;99.90
53208;DHT22;39093;52.788;6.940;2024-01-30T04:16:46;5.60;99.90
53208;DHT22;39093;52.788;6.940;2024-01-30T04:19:13;5.60;99.90
53208;DHT22;39093;52.788;6.940;2024-01-30T04:21:41;5.50;99.90
53208;DHT22;39093;52.788;6.940;2024-01-30T04:24:08;5.70;99.90
53208;DHT22;39093;52.788;6.940;2024-01-30T04:26:35;5.60;99.90
53208;DHT22;39093;52.788;6.940;2024-01-30T04:29:03;5.60;99.90
53208;DHT22;39093;52.788;6.940;2024-01-30T04:31:30;5.60;99.90
53208;DHT22;39093;52.788;6.940;2024-01-30T04:33:57;5.70;99.90
53208;DHT22;39093;52.788;6.940;2024-01-30T04:36:24;5.70;99.90
53208;DHT22;39093;52.788;6.940;2024-01-30T04:38:51;5.70;99.90
53208;DHT22;39093;52.788;6.940;2024-01-30T04:41:18;5.70;99.90
53208;DHT22;39093;52.788;6.940;2024-01-30T04:43:45;5.70;99.90
53208;DHT22;39093;52.788;6.940;2024-01-30T04:46:13;5.70;99.90
53208;DHT22;39093;52.788;6.940;2024-01-30T04:48:40;5.80;99.90
53208;DHT22;39093;52.788;6.940;2024-01-30T04:51:07;5.80;99.90
53208;DHT22;39093;52.788;6.940;2024-01-30T04:53:34;5.80;99.90
53208;DHT22;39093;52.788;6.940;2024-01-30T04:56:01;5.80;99.90
53208;DHT22;39093;52.788;6.940;2024-01-30T04:58:28;5.80;99.90
53208;DHT22;39093;52.788;6.940;2024-01-30T05:00:55;5.80;99.90
53208;DHT22;39093;52.788;6.940;2024-01-30T05:03:24;5.80;99.90
53208;DHT22;39093;52.788;6.940;2024-01-30T05:05:51;6.00;99.90
53208;DHT22;39093;52.788;6.940;2024-01-30T05:08:18;5.80;99.90
53208;DHT22;39093;52.788;6.940;2024-01-30T05:10:45;5.80;99.90
53208;DHT22;39093;52.788;6.940;2024-01-30T05:13:12;5.80;99.90
53208;DHT22;39093;52.788;6.940;2024-01-30T05:15:41;5.80;99.90
53208;DHT22;39093;52.788;6.940;2024-01-30T05:18:08;5.90;99.90
53208;DHT22;39093;52.788;6.940;2024-01-30T05:20:35;5.80;99.90
53208;DHT22;39093;52.788;6.940;2024-01-30T05:23:02;5.80;99.90
53208;DHT22;39093;52.788;6.940;2024-01-30T05:25:28;5.80;99.90
53208;DHT22;39093;52.788;6.940;2024-01-30T05:27:55;5.90;99.90
53208;DHT22;39093;52.788;6.940;2024-01-30T05:30:22;5.90;99.90
53208;DHT22;39093;52.788;6.940;2024-01-30T05:32:49;5.80;99.90
53208;DHT22;39093;52.788;6.940;2024-01-30T05:35:16;5.80;99.90
53208;DHT22;39093;52.788;6.940;2024-01-30T05:37:43;5.90;99.90
53208;DHT22;39093;52.788;6.940;2024-01-30T05:40:10;5.80;99.90
53208;DHT22;39093;52.788;6.940;2024-01-30T05:42:37;5.90;99.90
53208;DHT22;39093;52.788;6.940;2024-01-30T05:45:05;5.90;99.90
53208;DHT22;39093;52.788;6.940;2024-01-30T05:47:32;6.00;99.90
53208;DHT22;39093;52.788;6.940;2024-01-30T05:49:59;6.00;99.90
53208;DHT22;39093;52.788;6.940;2024-01-30T05:52:26;6.00;99.90
53208;DHT22;39093;52.788;6.940;2024-01-30T05:54:53;6.00;99.90
53208;DHT22;39093;52.788;6.940;2024-01-30T05:57:20;6.00;99.90
53208;DHT22;39093;52.788;6.940;2024-01-30T05:59:46;6.10;99.90
53208;DHT22;39093;52.788;6.940;2024-01-30T06:02:14;6.20;99.90
53208;DHT22;39093;52.788;6.940;2024-01-30T06:04:41;6.10;99.90
53208;DHT22;39093;52.788;6.940;2024-01-30T06:07:08;6.10;99.90
53208;DHT22;39093;52.788;6.940;2024-01-30T06:09:38;6.10;99.90
53208;DHT22;39093;52.788;6.940;2024-01-30T06:12:05;6.10;99.90
53208;DHT22;39093;52.788;6.940;2024-01-30T06:14:32;6.10;99.90
53208;DHT22;39093;52.788;6.940;2024-01-30T06:16:59;6.10;99.90
53208;DHT22;39093;52.788;6.940;2024-01-30T06:19:26;6.20;99.90
53208;DHT22;39093;52.788;6.940;2024-01-30T06:21:53;6.20;99.90
53208;DHT22;39093;52.788;6.940;2024-01-30T06:24:21;6.20;99.90
53208;DHT22;39093;52.788;6.940;2024-01-30T06:26:48;6.20;99.90
53208;DHT22;39093;52.788;6.940;2024-01-30T06:29:15;6.30;99.90
53208;DHT22;39093;52.788;6.940;2024-01-30T06:31:46;6.50;99.90
53208;DHT22;39093;52.788;6.940;2024-01-30T06:34:13;6.40;99.90
53208;DHT22;39093;52.788;6.940;2024-01-30T06:36:40;6.40;99.90
53208;DHT22;39093;52.788;6.940;2024-01-30T06:39:08;6.50;99.90
53208;DHT22;39093;52.788;6.940;2024-01-30T06:41:34;6.50;99.90
53208;DHT22;39093;52.788;6.940;2024-01-30T06:44:04;6.60;99.90
53208;DHT22;39093;52.788;6.940;2024-01-30T06:46:33;6.60;99.90
53208;DHT22;39093;52.788;6.940;2024-01-30T06:49:02;6.70;99.90
53208;DHT22;39093;52.788;6.940;2024-01-30T06:51:29;6.70;99.90
53208;DHT22;39093;52.788;6.940;2024-01-30T06:53:56;6.90;99.90
53208;DHT22;39093;52.788;6.940;2024-01-30T06:56:23;6.90;99.90
53208;DHT22;39093;52.788;6.940;2024-01-30T06:58:50;7.00;99.90
53208;DHT22;39093;52.788;6.940;2024-01-30T07:01:18;7.00;99.90
53208;DHT22;39093;52.788;6.940;2024-01-30T07:03:45;7.00;99.90
53208;DHT22;39093;52.788;6.940;2024-01-30T07:06:12;7.10;99.90
53208;DHT22;39093;52.788;6.940;2024-01-30T07:08:39;7.10;99.90
53208;DHT22;39093;52.788;6.940;2024-01-30T07:11:08;7.10;99.90
53208;DHT22;39093;52.788;6.940;2024-01-30T07:13:35;7.30;99.90
53208;DHT22;39093;52.788;6.940;2024-01-30T07:16:02;7.20;99.90
53208;DHT22;39093;52.788;6.940;2024-01-30T07:18:29;7.30;99.90
53208;DHT22;39093;52.788;6.940;2024-01-30T07:20:56;7.50;99.90
53208;DHT22;39093;52.788;6.940;2024-01-30T07:23:23;7.50;99.90
53208;DHT22;39093;52.788;6.940;2024-01-30T07:25:50;7.50;99.90
53208;DHT22;39093;52.788;6.940;2024-01-30T07:28:17;7.50;99.90
53208;DHT22;39093;52.788;6.940;2024-01-30T07:30:45;7.60;99.90
53208;DHT22;39093;52.788;6.940;2024-01-30T07:33:13;7.50;99.90
53208;DHT22;39093;52.788;6.940;2024-01-30T07:35:40;7.60;99.90
53208;DHT22;39093;52.788;6.940;2024-01-30T07:38:07;7.60;99.90
53208;DHT22;39093;52.788;6.940;2024-01-30T07:40:34;7.60;99.90
53208;DHT22;39093;52.788;6.940;2024-01-30T07:43:01;7.40;99.90
53208;DHT22;39093;52.788;6.940;2024-01-30T07:45:30;7.80;99.90
53208;DHT22;39093;52.788;6.940;2024-01-30T07:48:00;7.70;99.90
53208;DHT22;39093;52.788;6.940;2024-01-30T07:50:27;7.70;99.90
53208;DHT22;39093;52.788;6.940;2024-01-30T07:52:59;7.70;99.90
53208;DHT22;39093;52.788;6.940;2024-01-30T07:55:26;7.70;99.90
53208;DHT22;39093;52.788;6.940;2024-01-30T07:57:58;7.80;99.90
53208;DHT22;39093;52.788;6.940;2024-01-30T08:00:26;7.80;99.90
53208;DHT22;39093;52.788;6.940;2024-01-30T08:02:53;7.80;99.90
53208;DHT22;39093;52.788;6.940;2024-01-30T08:05:22;7.90;99.90
53208;DHT22;39093;52.788;6.940;2024-01-30T08:07:50;7.90;99.90
53208;DHT22;39093;52.788;6.940;2024-01-30T08:10:18;7.90;99.90
53208;DHT22;39093;52.788;6.940;2024-01-30T08:12:45;7.90;99.90
53208;DHT22;39093;52.788;6.940;2024-01-30T08:15:13;8.00;99.90
53208;DHT22;39093;52.788;6.940;2024-01-30T08:17:40;8.10;99.90
53208;DHT22;39093;52.788;6.940;2024-01-30T08:20:07;8.00;99.90
53208;DHT22;39093;52.788;6.940;2024-01-30T08:22:39;8.10;99.90
53208;DHT22;39093;52.788;6.940;2024-01-30T08:25:07;8.10;99.90
53208;DHT22;39093;52.788;6.940;2024-01-30T08:27:35;8.10;99.90
53208;DHT22;39093;52.788;6.940;2024-01-30T08:30:03;8.10;99.90
53208;DHT22;39093;52.788;6.940;2024-01-30T08:32:30;8.10;99.90
53208;DHT22;39093;52.788;6.940;2024-01-30T08:34:57;8.10;99.90
53208;DHT22;39093;52.788;6.940;2024-01-30T08:37:24;8.10;99.90
53208;DHT22;39093;52.788;6.940;2024-01-30T08:39:51;8.10;99.90
53208;DHT22;39093;52.788;6.940;2024-01-30T08:42:18;8.10;99.90
53208;DHT22;39093;52.788;6.940;2024-01-30T08:44:49;8.10;99.90
53208;DHT22;39093;52.788;6.940;2024-01-30T08:47:18;8.10;99.90
53208;DHT22;39093;52.788;6.940;2024-01-30T08:49:45;8.20;99.90
53208;DHT22;39093;52.788;6.940;2024-01-30T08:52:13;8.00;99.90
53208;DHT22;39093;52.788;6.940;2024-01-30T08:54:40;8.20;99.90
53208;DHT22;39093;52.788;6.940;2024-01-30T08:57:07;8.30;99.90
53208;DHT22;39093;52.788;6.940;2024-01-30T08:59:34;8.40;99.90
53208;DHT22;39093;52.788;6.940;2024-01-30T09:02:01;8.40;99.90
53208;DHT22;39093;52.788;6.940;2024-01-30T09:04:38;8.50;99.90
53208;DHT22;39093;52.788;6.940;2024-01-30T09:07:06;8.50;99.90
53208;DHT22;39093;52.788;6.940;2024-01-30T09:09:41;8.50;99.90
53208;DHT22;39093;52.788;6.940;2024-01-30T09:12:08;8.50;99.90
53208;DHT22;39093;52.788;6.940;2024-01-30T09:14:39;8.60;99.90
53208;DHT22;39093;52.788;6.940;2024-01-30T09:17:07;8.60;99.90
53208;DHT22;39093;52.788;6.940;2024-01-30T09:19:35;8.60;99.90
53208;DHT22;39093;52.788;6.940;2024-01-30T09:22:02;8.60;99.90
53208;DHT22;39093;52.788;6.940;2024-01-30T09:24:30;8.70;99.90
53208;DHT22;39093;52.788;6.940;2024-01-30T09:26:57;8.70;99.90
53208;DHT22;39093;52.788;6.940;2024-01-30T09:29:25;8.80;99.90
53208;DHT22;39093;52.788;6.940;2024-01-30T09:31:52;8.80;99.90
53208;DHT22;39093;52.788;6.940;2024-01-30T09:34:19;8.80;99.90
53208;DHT22;39093;52.788;6.940;2024-01-30T09:36:46;8.90;99.90
53208;DHT22;39093;52.788;6.940;2024-01-30T09:39:13;8.90;99.90
53208;DHT22;39093;52.788;6.940;2024-01-30T09:44:20;9.00;99.90
53208;DHT22;39093;52.788;6.940;2024-01-30T09:46:49;9.00;99.90
53208;DHT22;39093;52.788;6.940;2024-01-30T09:49:17;9.10;99.90
53208;DHT22;39093;52.788;6.940;2024-01-30T09:51:48;9.10;99.90
53208;DHT22;39093;52.788;6.940;2024-01-30T09:54:15;9.20;99.90
53208;DHT22;39093;52.788;6.940;2024-01-30T09:56:43;9.20;99.90
53208;DHT22;39093;52.788;6.940;2024-01-30T09:59:10;9.30;99.90
53208;DHT22;39093;52.788;6.940;2024-01-30T10:01:37;9.30;99.90
53208;DHT22;39093;52.788;6.940;2024-01-30T10:04:06;9.40;99.90
53208;DHT22;39093;52.788;6.940;2024-01-30T10:06:34;9.40;99.90
53208;DHT22;39093;52.788;6.940;2024-01-30T10:09:01;9.40;99.90
53208;DHT22;39093;52.788;6.940;2024-01-30T10:11:28;9.30;99.90
53208;DHT22;39093;52.788;6.940;2024-01-30T10:13:55;9.40;99.90
53208;DHT22;39093;52.788;6.940;2024-01-30T10:16:22;9.40;99.90
53208;DHT22;39093;52.788;6.940;2024-01-30T10:18:50;9.40;99.90
53208;DHT22;39093;52.788;6.940;2024-01-30T10:21:18;9.40;99.90
53208;DHT22;39093;52.788;6.940;2024-01-30T10:23:45;9.40;99.90
53208;DHT22;39093;52.788;6.940;2024-01-30T10:26:12;9.40;99.90
53208;DHT22;39093;52.788;6.940;2024-01-30T10:28:40;9.50;99.90
53208;DHT22;39093;52.788;6.940;2024-01-30T10:31:06;9.50;99.90
53208;DHT22;39093;52.788;6.940;2024-01-30T10:33:34;9.60;99.90
53208;DHT22;39093;52.788;6.940;2024-01-30T10:36:03;9.50;99.90
53208;DHT22;39093;52.788;6.940;2024-01-30T10:38:32;9.50;99.90
53208;DHT22;39093;52.788;6.940;2024-01-30T10:41:01;9.60;99.90
53208;DHT22;39093;52.788;6.940;2024-01-30T10:43:35;9.60;99.90
53208;DHT22;39093;52.788;6.940;2024-01-30T10:46:18;9.60;99.90
53208;DHT22;39093;52.788;6.940;2024-01-30T10:48:58;9.70;99.90
53208;DHT22;39093;52.788;6.940;2024-01-30T10:51:29;9.80;99.90
53208;DHT22;39093;52.788;6.940;2024-01-30T10:53:56;9.90;99.90
53208;DHT22;39093;52.788;6.940;2024-01-30T10:56:25;10.00;99.90
53208;DHT22;39093;52.788;6.940;2024-01-30T10:58:53;9.90;99.90
53208;DHT22;39093;52.788;6.940;2024-01-30T11:01:21;9.90;99.90
53208;DHT22;39093;52.788;6.940;2024-01-30T11:03:52;9.90;99.90
53208;DHT22;39093;52.788;6.940;2024-01-30T11:06:23;10.00;99.90
53208;DHT22;39093;52.788;6.940;2024-01-30T11:09:04;10.00;99.90
53208;DHT22;39093;52.788;6.940;2024-01-30T11:11:57;10.00;99.90
53208;DHT22;39093;52.788;6.940;2024-01-30T11:14:29;10.10;99.90
53208;DHT22;39093;52.788;6.940;2024-01-30T11:17:00;10.10;99.90
53208;DHT22;39093;52.788;6.940;2024-01-30T11:19:30;10.20;99.90
53208;DHT22;39093;52.788;6.940;2024-01-30T11:21:58;10.20;99.90
53208;DHT22;39093;52.788;6.940;2024-01-30T11:24:28;10.20;99.90
53208;DHT22;39093;52.788;6.940;2024-01-30T11:26:56;10.30;99.90
53208;DHT22;39093;52.788;6.940;2024-01-30T11:29:28;10.20;99.90
53208;DHT22;39093;52.788;6.940;2024-01-30T11:31:56;10.30;99.90
53208;DHT22;39093;52.788;6.940;2024-01-30T11:34:26;10.30;99.90
53208;DHT22;39093;52.788;6.940;2024-01-30T11:37:03;10.30;99.90
53208;DHT22;39093;52.788;6.940;2024-01-30T11:39:30;10.30;99.90
53208;DHT22;39093;52.788;6.940;2024-01-30T11:41:59;10.40;99.90
53208;DHT22;39093;52.788;6.940;2024-01-30T11:44:26;10.40;99.90
53208;DHT22;39093;52.788;6.940;2024-01-30T11:46:53;10.40;99.90
53208;DHT22;39093;52.788;6.940;2024-01-30T11:49:20;10.40;99.90
53208;DHT22;39093;52.788;6.940;2024-01-30T11:51:48;10.40;99.90
53208;DHT22;39093;52.788;6.940;2024-01-30T11:54:16;10.30;99.90
53208;DHT22;39093;52.788;6.940;2024-01-30T11:56:43;10.40;99.90
53208;DHT22;39093;52.788;6.940;2024-01-30T11:59:10;10.40;99.90
53208;DHT22;39093;52.788;6.940;2024-01-30T12:01:38;10.40;99.90
53208;DHT22;39093;52.788;6.940;2024-01-30T12:04:05;10.40;99.90
53208;DHT22;39093;52.788;6.940;2024-01-30T12:06:37;10.40;99.90
53208;DHT22;39093;52.788;6.940;2024-01-30T12:09:05;10.50;99.90
53208;DHT22;39093;52.788;6.940;2024-01-30T12:11:47;10.40;99.90
53208;DHT22;39093;52.788;6.940;2024-01-30T12:14:15;10.60;99.90
53208;DHT22;39093;52.788;6.940;2024-01-30T12:16:43;10.50;99.90
53208;DHT22;39093;52.788;6.940;2024-01-30T12:19:09;10.50;99.90
53208;DHT22;39093;52.788;6.940;2024-01-30T12:21:38;10.50;99.90
53208;DHT22;39093;52.788;6.940;2024-01-30T12:24:05;10.50;99.90
53208;DHT22;39093;52.788;6.940;2024-01-30T12:26:34;10.50;99.90
53208;DHT22;39093;52.788;6.940;2024-01-30T12:29:04;10.60;99.90
53208;DHT22;39093;52.788;6.940;2024-01-30T12:31:32;10.70;99.90
53208;DHT22;39093;52.788;6.940;2024-01-30T12:34:00;10.70;99.90
53208;DHT22;39093;52.788;6.940;2024-01-30T12:36:28;10.80;99.90
53208;DHT22;39093;52.788;6.940;2024-01-30T12:38:57;10.90;99.90
53208;DHT22;39093;52.788;6.940;2024-01-30T12:41:25;11.00;99.90
53208;DHT22;39093;52.788;6.940;2024-01-30T12:43:57;11.10;99.90
53208;DHT22;39093;52.788;6.940;2024-01-30T12:46:30;11.00;99.90
53208;DHT22;39093;52.788;6.940;2024-01-30T12:48:57;11.00;99.90
53208;DHT22;39093;52.788;6.940;2024-01-30T12:51:24;11.00;99.90
53208;DHT22;39093;52.788;6.940;2024-01-30T12:53:51;10.90;99.90
53208;DHT22;39093;52.788;6.940;2024-01-30T12:56:18;10.90;99.90
53208;DHT22;39093;52.788;6.940;2024-01-30T12:58:45;10.90;99.90
53208;DHT22;39093;52.788;6.940;2024-01-30T13:01:17;11.00;99.90
53208;DHT22;39093;52.788;6.940;2024-01-30T13:03:44;10.90;99.90
53208;DHT22;39093;52.788;6.940;2024-01-30T13:06:11;11.00;99.90
53208;DHT22;39093;52.788;6.940;2024-01-30T13:08:39;10.90;99.90
53208;DHT22;39093;52.788;6.940;2024-01-30T13:11:06;10.90;99.90
53208;DHT22;39093;52.788;6.940;2024-01-30T13:13:43;11.00;99.90
53208;DHT22;39093;52.788;6.940;2024-01-30T13:16:10;11.00;99.90
53208;DHT22;39093;52.788;6.940;2024-01-30T13:18:37;11.00;99.90
53208;DHT22;39093;52.788;6.940;2024-01-30T13:21:04;11.00;99.90
53208;DHT22;39093;52.788;6.940;2024-01-30T13:23:31;11.00;99.90
53208;DHT22;39093;52.788;6.940;2024-01-30T13:25:58;11.00;99.90
53208;DHT22;39093;52.788;6.940;2024-01-30T13:28:25;11.00;99.90
53208;DHT22;39093;52.788;6.940;2024-01-30T13:30:52;10.90;99.90
53208;DHT22;39093;52.788;6.940;2024-01-30T13:33:19;10.80;99.90
53208;DHT22;39093;52.788;6.940;2024-01-30T13:35:46;10.80;99.90
53208;DHT22;39093;52.788;6.940;2024-01-30T13:38:13;10.70;99.90
53208;DHT22;39093;52.788;6.940;2024-01-30T13:40:41;10.70;99.90
53208;DHT22;39093;52.788;6.940;2024-01-30T13:43:08;10.70;99.90
53208;DHT22;39093;52.788;6.940;2024-01-30T13:45:35;10.70;99.90
53208;DHT22;39093;52.788;6.940;2024-01-30T13:48:03;10.70;99.90
53208;DHT22;39093;52.788;6.940;2024-01-30T13:50:30;10.60;99.90
53208;DHT22;39093;52.788;6.940;2024-01-30T13:52:59;10.70;99.90
53208;DHT22;39093;52.788;6.940;2024-01-30T13:55:27;10.70;99.90
53208;DHT22;39093;52.788;6.940;2024-01-30T13:57:54;10.60;99.90
53208;DHT22;39093;52.788;6.940;2024-01-30T14:00:22;10.60;99.90
53208;DHT22;39093;52.788;6.940;2024-01-30T14:02:52;10.60;99.90
53208;DHT22;39093;52.788;6.940;2024-01-30T14:05:21;10.60;99.90
53208;DHT22;39093;52.788;6.940;2024-01-30T14:07:50;10.60;99.90
53208;DHT22;39093;52.788;6.940;2024-01-30T14:10:17;10.50;99.90
53208;DHT22;39093;52.788;6.940;2024-01-30T14:12:45;10.50;99.90
53208;DHT22;39093;52.788;6.940;2024-01-30T14:15:12;10.50;99.90
53208;DHT22;39093;52.788;6.940;2024-01-30T14:17:53;10.40;99.90
53208;DHT22;39093;52.788;6.940;2024-01-30T14:20:20;10.30;99.90
53208;DHT22;39093;52.788;6.940;2024-01-30T14:22:47;10.20;99.90
53208;DHT22;39093;52.788;6.940;2024-01-30T14:25:14;10.20;99.90
53208;DHT22;39093;52.788;6.940;2024-01-30T14:27:43;10.30;99.90
53208;DHT22;39093;52.788;6.940;2024-01-30T14:30:12;10.20;99.90
53208;DHT22;39093;52.788;6.940;2024-01-30T14:32:39;10.20;99.90
53208;DHT22;39093;52.788;6.940;2024-01-30T14:35:07;10.20;99.90
53208;DHT22;39093;52.788;6.940;2024-01-30T14:37:36;10.10;99.90
53208;DHT22;39093;52.788;6.940;2024-01-30T14:40:04;10.10;99.90
53208;DHT22;39093;52.788;6.940;2024-01-30T14:42:34;10.10;99.90
53208;DHT22;39093;52.788;6.940;2024-01-30T14:45:05;10.10;99.90
53208;DHT22;39093;52.788;6.940;2024-01-30T14:47:33;10.00;99.90
53208;DHT22;39093;52.788;6.940;2024-01-30T14:50:00;10.00;99.90
53208;DHT22;39093;52.788;6.940;2024-01-30T14:52:27;10.00;99.90
53208;DHT22;39093;52.788;6.940;2024-01-30T14:54:54;9.90;99.90
53208;DHT22;39093;52.788;6.940;2024-01-30T14:57:21;9.90;99.90
53208;DHT22;39093;52.788;6.940;2024-01-30T14:59:48;9.90;99.90
53208;DHT22;39093;52.788;6.940;2024-01-30T15:02:15;9.90;99.90
53208;DHT22;39093;52.788;6.940;2024-01-30T15:04:42;9.90;99.90
53208;DHT22;39093;52.788;6.940;2024-01-30T15:07:09;9.90;99.90
53208;DHT22;39093;52.788;6.940;2024-01-30T15:09:38;9.90;99.90
53208;DHT22;39093;52.788;6.940;2024-01-30T15:12:05;9.90;99.90
53208;DHT22;39093;52.788;6.940;2024-01-30T15:14:32;9.90;99.90
53208;DHT22;39093;52.788;6.940;2024-01-30T15:16:58;9.90;99.90
53208;DHT22;39093;52.788;6.940;2024-01-30T15:19:26;9.80;99.90
53208;DHT22;39093;52.788;6.940;2024-01-30T15:21:53;9.80;99.90
53208;DHT22;39093;52.788;6.940;2024-01-30T15:24:20;9.80;99.90
53208;DHT22;39093;52.788;6.940;2024-01-30T15:26:51;9.70;99.90
53208;DHT22;39093;52.788;6.940;2024-01-30T15:29:19;9.70;99.90
53208;DHT22;39093;52.788;6.940;2024-01-30T15:31:48;9.70;99.90
53208;DHT22;39093;52.788;6.940;2024-01-30T15:34:15;9.60;99.90
53208;DHT22;39093;52.788;6.940;2024-01-30T15:36:42;9.50;99.90
53208;DHT22;39093;52.788;6.940;2024-01-30T15:39:09;9.40;99.90
53208;DHT22;39093;52.788;6.940;2024-01-30T15:41:37;9.50;99.90
53208;DHT22;39093;52.788;6.940;2024-01-30T15:44:04;9.50;99.90
53208;DHT22;39093;52.788;6.940;2024-01-30T15:46:31;9.30;99.90
53208;DHT22;39093;52.788;6.940;2024-01-30T15:48:59;9.20;99.90